AFR34DB LFPG-LFRB
Flight info
| Callsign | AFR34DB |
|---|---|
| Flight time | 0h 55m |
| Altitude | 30000 |
| Route | LGL UN491 UPALO/N0458F290 UN585 FEJAC DCT BADUR/N0382F180 T120 ANLEV |
| Aircraft | A320/M-SDE3FGHIRWY/LB1 |
Departure
| Time | 2026-05-08 12:27 |
|---|---|
| Airport | Charles de Gaulle International Airport (LFPG) |
Arrival
| Time | 2026-05-08 13:22 |
|---|---|
| Airport | Brest Bretagne airport (LFRB) |
| Time | Latitude | Longitude | Altitude | Speed | Heading |
|---|---|---|---|---|---|
| 2026-05-08 11:58 | 49.00693 | 2.57561 | 362 ft | 0 kts | 227° |
| 2026-05-08 12:14 | 49.00695 | 2.57563 | 358 ft | 2 kts | 227° |
| 2026-05-08 12:14 | 49.00713 | 2.57592 | 360 ft | 4 kts | 226° |
| 2026-05-08 12:14 | 49.00730 | 2.57622 | 361 ft | 4 kts | 245° |
| 2026-05-08 12:15 | 49.00734 | 2.57656 | 362 ft | 4 kts | 303° |
| 2026-05-08 12:15 | 49.00723 | 2.57672 | 359 ft | 1 kts | 334° |
| 2026-05-08 12:15 | 49.00721 | 2.57673 | 359 ft | 0 kts | 334° |
| 2026-05-08 12:18 | 49.00733 | 2.57665 | 361 ft | 9 kts | 333° |
| 2026-05-08 12:18 | 49.00795 | 2.57577 | 357 ft | 17 kts | 334° |
| 2026-05-08 12:18 | 49.00876 | 2.57515 | 361 ft | 6 kts | 300° |
| 2026-05-08 12:18 | 49.00876 | 2.57506 | 362 ft | 1 kts | 276° |
| 2026-05-08 12:19 | 49.00876 | 2.57484 | 359 ft | 7 kts | 267° |
| 2026-05-08 12:19 | 49.00864 | 2.57296 | 358 ft | 20 kts | 265° |
| 2026-05-08 12:19 | 49.00853 | 2.57079 | 361 ft | 21 kts | 266° |
| 2026-05-08 12:19 | 49.00841 | 2.56868 | 354 ft | 20 kts | 265° |
| 2026-05-08 12:20 | 49.00830 | 2.56656 | 354 ft | 22 kts | 265° |
| 2026-05-08 12:20 | 49.00814 | 2.56422 | 354 ft | 23 kts | 261° |
| 2026-05-08 12:20 | 49.00790 | 2.56184 | 358 ft | 23 kts | 261° |
| 2026-05-08 12:20 | 49.00768 | 2.55942 | 354 ft | 23 kts | 263° |
| 2026-05-08 12:21 | 49.00747 | 2.55689 | 358 ft | 25 kts | 263° |
| 2026-05-08 12:21 | 49.00719 | 2.55429 | 362 ft | 23 kts | 246° |
| 2026-05-08 12:21 | 49.00582 | 2.55412 | 358 ft | 22 kts | 163° |
| 2026-05-08 12:21 | 49.00430 | 2.55478 | 358 ft | 23 kts | 162° |
| 2026-05-08 12:22 | 49.00271 | 2.55547 | 360 ft | 24 kts | 164° |
| 2026-05-08 12:22 | 49.00106 | 2.55620 | 358 ft | 25 kts | 163° |
| 2026-05-08 12:22 | 48.99945 | 2.55711 | 361 ft | 25 kts | 139° |
| 2026-05-08 12:22 | 48.99810 | 2.55800 | 357 ft | 16 kts | 178° |
| 2026-05-08 12:23 | 48.99760 | 2.55803 | 354 ft | 0 kts | 175° |
| 2026-05-08 12:23 | 48.99746 | 2.55805 | 356 ft | 9 kts | 175° |
| 2026-05-08 12:23 | 48.99701 | 2.55813 | 354 ft | 0 kts | 172° |
| 2026-05-08 12:25 | 48.99669 | 2.55819 | 360 ft | 12 kts | 172° |
| 2026-05-08 12:25 | 48.99605 | 2.55917 | 353 ft | 15 kts | 90° |
| 2026-05-08 12:25 | 48.99609 | 2.55984 | 354 ft | 0 kts | 85° |
| 2026-05-08 12:26 | 48.99611 | 2.56036 | 354 ft | 25 kts | 86° |
| 2026-05-08 12:26 | 48.99646 | 2.56692 | 356 ft | 96 kts | 85° |
| 2026-05-08 12:26 | 48.99717 | 2.58000 | 358 ft | 148 kts | 85° |
| 2026-05-08 12:27 | 48.99775 | 2.59700 | 758 ft | 163 kts | 87° |
| 2026-05-08 12:27 | 48.99855 | 2.61398 | 1496 ft | 162 kts | 85° |
| 2026-05-08 12:27 | 48.99953 | 2.63115 | 2180 ft | 167 kts | 84° |
| 2026-05-08 12:27 | 49.00061 | 2.64983 | 2548 ft | 188 kts | 85° |
| 2026-05-08 12:28 | 49.00180 | 2.67091 | 2895 ft | 213 kts | 85° |
| 2026-05-08 12:28 | 49.00311 | 2.69468 | 3336 ft | 237 kts | 85° |
| 2026-05-08 12:28 | 49.00452 | 2.72081 | 3883 ft | 255 kts | 85° |
| 2026-05-08 12:28 | 49.00596 | 2.74815 | 4707 ft | 262 kts | 85° |
| 2026-05-08 12:29 | 49.00610 | 2.77607 | 5559 ft | 267 kts | 100° |
| 2026-05-08 12:29 | 48.99918 | 2.80235 | 6420 ft | 271 kts | 126° |
| 2026-05-08 12:29 | 48.98524 | 2.82158 | 7209 ft | 275 kts | 152° |
| 2026-05-08 12:29 | 48.96685 | 2.82941 | 8030 ft | 278 kts | 180° |
| 2026-05-08 12:30 | 48.94801 | 2.82387 | 8897 ft | 278 kts | 206° |
| 2026-05-08 12:30 | 48.93271 | 2.80620 | 9742 ft | 280 kts | 232° |
| 2026-05-08 12:30 | 48.92302 | 2.78017 | 10400 ft | 290 kts | 244° |
| 2026-05-08 12:30 | 48.91401 | 2.75139 | 10647 ft | 313 kts | 244° |
| 2026-05-08 12:31 | 48.90438 | 2.72042 | 10823 ft | 336 kts | 244° |
| 2026-05-08 12:31 | 48.89399 | 2.68714 | 10973 ft | 359 kts | 244° |
| 2026-05-08 12:31 | 48.88293 | 2.65186 | 11097 ft | 379 kts | 244° |
| 2026-05-08 12:31 | 48.87134 | 2.61512 | 11528 ft | 389 kts | 244° |
| 2026-05-08 12:32 | 48.85960 | 2.57806 | 11937 ft | 391 kts | 244° |
| 2026-05-08 12:32 | 48.84771 | 2.54070 | 12357 ft | 394 kts | 244° |
| 2026-05-08 12:32 | 48.83575 | 2.50323 | 12992 ft | 396 kts | 244° |
| 2026-05-08 12:32 | 48.82368 | 2.46548 | 13599 ft | 399 kts | 244° |
| 2026-05-08 12:33 | 48.81202 | 2.42714 | 14146 ft | 402 kts | 248° |
| 2026-05-08 12:33 | 48.80416 | 2.38622 | 14657 ft | 406 kts | 258° |
| 2026-05-08 12:33 | 48.80114 | 2.34345 | 15189 ft | 410 kts | 268° |
| 2026-05-08 12:33 | 48.80121 | 2.30032 | 15693 ft | 413 kts | 269° |
| 2026-05-08 12:34 | 48.80132 | 2.25665 | 16190 ft | 415 kts | 269° |
| 2026-05-08 12:34 | 48.80138 | 2.21275 | 16668 ft | 417 kts | 269° |
| 2026-05-08 12:34 | 48.80142 | 2.16860 | 17164 ft | 420 kts | 269° |
| 2026-05-08 12:34 | 48.80143 | 2.12413 | 17641 ft | 423 kts | 269° |
| 2026-05-08 12:35 | 48.80141 | 2.07941 | 18109 ft | 425 kts | 269° |
| 2026-05-08 12:35 | 48.80139 | 2.03507 | 18529 ft | 427 kts | 269° |
| 2026-05-08 12:35 | 48.80136 | 1.98986 | 18930 ft | 429 kts | 269° |
| 2026-05-08 12:35 | 48.80131 | 1.94392 | 19332 ft | 431 kts | 269° |
| 2026-05-08 12:36 | 48.80125 | 1.89900 | 19723 ft | 433 kts | 269° |
| 2026-05-08 12:36 | 48.80117 | 1.85323 | 20110 ft | 434 kts | 269° |
| 2026-05-08 12:36 | 48.80106 | 1.80730 | 20488 ft | 436 kts | 269° |
| 2026-05-08 12:36 | 48.80092 | 1.76120 | 20854 ft | 437 kts | 269° |
| 2026-05-08 12:37 | 48.80076 | 1.71501 | 21238 ft | 438 kts | 270° |
| 2026-05-08 12:37 | 48.80061 | 1.66869 | 21632 ft | 438 kts | 270° |
| 2026-05-08 12:37 | 48.80044 | 1.62238 | 21990 ft | 439 kts | 270° |
| 2026-05-08 12:37 | 48.80026 | 1.57606 | 22345 ft | 441 kts | 270° |
| 2026-05-08 12:38 | 48.80006 | 1.52950 | 22676 ft | 442 kts | 270° |
| 2026-05-08 12:38 | 48.79982 | 1.48278 | 23004 ft | 443 kts | 270° |
| 2026-05-08 12:38 | 48.79954 | 1.43585 | 23324 ft | 445 kts | 270° |
| 2026-05-08 12:38 | 48.79921 | 1.38894 | 23691 ft | 445 kts | 270° |
| 2026-05-08 12:39 | 48.79887 | 1.34221 | 24086 ft | 443 kts | 271° |
| 2026-05-08 12:39 | 48.79855 | 1.29567 | 24466 ft | 441 kts | 271° |
| 2026-05-08 12:39 | 48.79823 | 1.24930 | 24917 ft | 437 kts | 272° |
| 2026-05-08 12:39 | 48.79791 | 1.20331 | 25335 ft | 435 kts | 272° |
| 2026-05-08 12:40 | 48.79758 | 1.15804 | 25725 ft | 434 kts | 272° |
| 2026-05-08 12:40 | 48.79719 | 1.11235 | 26113 ft | 433 kts | 272° |
| 2026-05-08 12:40 | 48.79677 | 1.06673 | 26498 ft | 432 kts | 272° |
| 2026-05-08 12:40 | 48.79636 | 1.02124 | 26882 ft | 431 kts | 272° |
| 2026-05-08 12:41 | 48.79595 | 0.97572 | 27274 ft | 431 kts | 272° |
| 2026-05-08 12:41 | 48.79551 | 0.93042 | 27661 ft | 430 kts | 272° |
| 2026-05-08 12:41 | 48.79503 | 0.88511 | 28067 ft | 429 kts | 272° |
| 2026-05-08 12:41 | 48.79451 | 0.83981 | 28423 ft | 429 kts | 271° |
| 2026-05-08 12:42 | 48.79396 | 0.79462 | 28784 ft | 429 kts | 271° |
| 2026-05-08 12:42 | 48.79341 | 0.74946 | 29180 ft | 428 kts | 271° |
| 2026-05-08 12:42 | 48.79286 | 0.70433 | 29574 ft | 427 kts | 271° |
| 2026-05-08 12:42 | 48.79231 | 0.65932 | 29958 ft | 427 kts | 271° |
| 2026-05-08 12:43 | 48.79113 | 0.56839 | 30041 ft | 435 kts | 271° |
| 2026-05-08 12:43 | 48.79401 | 0.47689 | 30039 ft | 435 kts | 278° |
| 2026-05-08 12:44 | 48.79988 | 0.38541 | 30042 ft | 437 kts | 277° |
| 2026-05-08 12:44 | 48.80563 | 0.29410 | 30030 ft | 438 kts | 277° |
| 2026-05-08 12:45 | 48.81136 | 0.20216 | 30026 ft | 438 kts | 277° |
| 2026-05-08 12:45 | 48.81697 | 0.11020 | 30025 ft | 438 kts | 277° |
| 2026-05-08 12:46 | 48.82244 | 0.01818 | 30018 ft | 438 kts | 276° |
| 2026-05-08 12:46 | 48.82785 | -0.07385 | 30010 ft | 438 kts | 276° |
| 2026-05-08 12:47 | 48.83325 | -0.16602 | 30021 ft | 439 kts | 276° |
| 2026-05-08 12:47 | 48.83861 | -0.25831 | 30027 ft | 439 kts | 276° |
| 2026-05-08 12:48 | 48.84371 | -0.35063 | 30029 ft | 439 kts | 275° |
| 2026-05-08 12:48 | 48.84855 | -0.44316 | 30024 ft | 439 kts | 275° |
| 2026-05-08 12:49 | 48.85338 | -0.53561 | 30027 ft | 439 kts | 275° |
| 2026-05-08 12:49 | 48.85817 | -0.62802 | 30026 ft | 439 kts | 275° |
| 2026-05-08 12:50 | 48.86284 | -0.72047 | 30026 ft | 439 kts | 275° |
| 2026-05-08 12:50 | 48.86738 | -0.81292 | 30030 ft | 439 kts | 275° |
| 2026-05-08 12:51 | 48.87418 | -0.95107 | 30021 ft | 440 kts | 275° |
| 2026-05-08 12:52 | 48.87872 | -1.04380 | 30021 ft | 440 kts | 275° |
| 2026-05-08 12:52 | 48.88526 | -1.18294 | 30019 ft | 440 kts | 274° |
| 2026-05-08 12:53 | 48.88950 | -1.27580 | 30012 ft | 440 kts | 274° |
| 2026-05-08 12:53 | 48.89371 | -1.36862 | 30007 ft | 441 kts | 274° |
| 2026-05-08 12:54 | 48.89784 | -1.46159 | 30006 ft | 441 kts | 274° |
| 2026-05-08 12:54 | 48.90191 | -1.55476 | 30013 ft | 442 kts | 274° |
| 2026-05-08 12:55 | 48.90597 | -1.64786 | 30013 ft | 441 kts | 274° |
| 2026-05-08 12:55 | 48.90857 | -1.74107 | 30013 ft | 442 kts | 267° |
| 2026-05-08 12:56 | 48.89728 | -1.83262 | 30019 ft | 442 kts | 256° |
| 2026-05-08 12:56 | 48.88251 | -1.92330 | 30018 ft | 442 kts | 256° |
| 2026-05-08 12:57 | 48.86786 | -2.01385 | 30010 ft | 442 kts | 256° |
| 2026-05-08 12:57 | 48.85308 | -2.10440 | 30003 ft | 442 kts | 256° |
| 2026-05-08 12:58 | 48.83825 | -2.19485 | 30009 ft | 442 kts | 256° |
| 2026-05-08 12:58 | 48.82332 | -2.28533 | 30002 ft | 442 kts | 256° |
| 2026-05-08 12:59 | 48.80840 | -2.37509 | 30000 ft | 442 kts | 256° |
| 2026-05-08 12:59 | 48.79329 | -2.46541 | 29993 ft | 442 kts | 256° |
| 2026-05-08 13:00 | 48.78571 | -2.51041 | 29462 ft | 439 kts | 256° |
| 2026-05-08 13:00 | 48.77812 | -2.55537 | 28280 ft | 442 kts | 256° |
| 2026-05-08 13:00 | 48.77048 | -2.60069 | 27045 ft | 447 kts | 256° |
| 2026-05-08 13:00 | 48.76277 | -2.64664 | 25804 ft | 453 kts | 255° |
| 2026-05-08 13:01 | 48.75493 | -2.69327 | 24547 ft | 458 kts | 255° |
| 2026-05-08 13:01 | 48.74703 | -2.74011 | 23625 ft | 458 kts | 255° |
| 2026-05-08 13:01 | 48.73914 | -2.78654 | 22689 ft | 453 kts | 255° |
| 2026-05-08 13:01 | 48.73131 | -2.83255 | 21844 ft | 448 kts | 255° |
| 2026-05-08 13:02 | 48.72351 | -2.87799 | 21057 ft | 443 kts | 255° |
| 2026-05-08 13:02 | 48.71576 | -2.92276 | 20306 ft | 438 kts | 255° |
| 2026-05-08 13:02 | 48.70805 | -2.96712 | 19583 ft | 433 kts | 255° |
| 2026-05-08 13:02 | 48.70040 | -3.01097 | 18887 ft | 428 kts | 255° |
| 2026-05-08 13:03 | 48.69283 | -3.05425 | 18213 ft | 424 kts | 255° |
| 2026-05-08 13:03 | 48.68558 | -3.09730 | 17458 ft | 419 kts | 256° |
| 2026-05-08 13:03 | 48.67878 | -3.13995 | 16706 ft | 415 kts | 256° |
| 2026-05-08 13:03 | 48.67222 | -3.18233 | 15978 ft | 412 kts | 256° |
| 2026-05-08 13:04 | 48.66578 | -3.22430 | 15280 ft | 408 kts | 256° |
| 2026-05-08 13:04 | 48.65932 | -3.26594 | 14616 ft | 404 kts | 255° |
| 2026-05-08 13:04 | 48.65494 | -3.29376 | 14141 ft | 402 kts | 255° |
| 2026-05-08 13:04 | 48.64855 | -3.33386 | 13431 ft | 400 kts | 255° |
| 2026-05-08 13:05 | 48.64197 | -3.37450 | 12689 ft | 396 kts | 255° |
| 2026-05-08 13:05 | 48.63541 | -3.41472 | 11977 ft | 392 kts | 254° |
| 2026-05-08 13:05 | 48.62890 | -3.45453 | 11256 ft | 389 kts | 255° |
| 2026-05-08 13:05 | 48.62244 | -3.49401 | 10560 ft | 386 kts | 255° |
| 2026-05-08 13:06 | 48.61606 | -3.53318 | 9917 ft | 383 kts | 255° |
| 2026-05-08 13:06 | 48.61166 | -3.57164 | 9991 ft | 360 kts | 261° |
| 2026-05-08 13:06 | 48.60873 | -3.60807 | 9995 ft | 339 kts | 261° |
| 2026-05-08 13:06 | 48.60588 | -3.64224 | 9995 ft | 320 kts | 261° |
| 2026-05-08 13:07 | 48.60311 | -3.67477 | 9996 ft | 304 kts | 261° |
| 2026-05-08 13:07 | 48.60045 | -3.70563 | 9992 ft | 290 kts | 261° |
| 2026-05-08 13:07 | 48.59787 | -3.73565 | 9993 ft | 287 kts | 261° |
| 2026-05-08 13:07 | 48.59528 | -3.76537 | 9975 ft | 285 kts | 260° |
| 2026-05-08 13:08 | 48.59274 | -3.79457 | 9974 ft | 285 kts | 261° |
| 2026-05-08 13:08 | 48.59012 | -3.82464 | 9974 ft | 285 kts | 261° |
| 2026-05-08 13:08 | 48.58754 | -3.85436 | 9969 ft | 286 kts | 260° |
| 2026-05-08 13:08 | 48.58494 | -3.88411 | 9975 ft | 287 kts | 260° |
| 2026-05-08 13:09 | 48.58232 | -3.91399 | 9975 ft | 286 kts | 260° |
| 2026-05-08 13:09 | 48.57974 | -3.94375 | 9974 ft | 286 kts | 260° |
| 2026-05-08 13:09 | 48.57716 | -3.97348 | 9974 ft | 286 kts | 260° |
| 2026-05-08 13:09 | 48.57458 | -4.00324 | 9976 ft | 286 kts | 260° |
| 2026-05-08 13:10 | 48.57201 | -4.03265 | 9975 ft | 286 kts | 260° |
| 2026-05-08 13:10 | 48.56938 | -4.06263 | 9735 ft | 284 kts | 261° |
| 2026-05-08 13:10 | 48.56681 | -4.09183 | 9342 ft | 283 kts | 260° |
| 2026-05-08 13:10 | 48.56423 | -4.12125 | 8953 ft | 282 kts | 259° |
| 2026-05-08 13:11 | 48.56167 | -4.15032 | 8566 ft | 281 kts | 260° |
| 2026-05-08 13:11 | 48.55908 | -4.17949 | 8167 ft | 280 kts | 260° |
| 2026-05-08 13:11 | 48.55648 | -4.20841 | 7781 ft | 278 kts | 260° |
| 2026-05-08 13:11 | 48.55388 | -4.23733 | 7493 ft | 274 kts | 259° |
| 2026-05-08 13:12 | 48.55138 | -4.26521 | 7362 ft | 262 kts | 260° |
| 2026-05-08 13:12 | 48.54896 | -4.29206 | 7128 ft | 256 kts | 260° |
| 2026-05-08 13:12 | 48.54658 | -4.31857 | 6792 ft | 254 kts | 260° |
| 2026-05-08 13:12 | 48.54420 | -4.34501 | 6492 ft | 253 kts | 260° |
| 2026-05-08 13:13 | 48.54183 | -4.37135 | 6155 ft | 253 kts | 259° |
| 2026-05-08 13:13 | 48.53944 | -4.39760 | 5830 ft | 252 kts | 259° |
| 2026-05-08 13:13 | 48.53708 | -4.42333 | 5696 ft | 243 kts | 259° |
| 2026-05-08 13:13 | 48.53480 | -4.44808 | 5562 ft | 235 kts | 259° |
| 2026-05-08 13:14 | 48.53259 | -4.47234 | 5337 ft | 232 kts | 259° |
| 2026-05-08 13:14 | 48.53039 | -4.49638 | 5045 ft | 231 kts | 259° |
| 2026-05-08 13:14 | 48.52818 | -4.52038 | 4759 ft | 231 kts | 259° |
| 2026-05-08 13:14 | 48.52488 | -4.54402 | 4493 ft | 228 kts | 248° |
| 2026-05-08 13:15 | 48.51967 | -4.56661 | 4219 ft | 228 kts | 248° |
| 2026-05-08 13:15 | 48.51452 | -4.58919 | 4024 ft | 227 kts | 248° |
| 2026-05-08 13:15 | 48.50937 | -4.61177 | 4005 ft | 227 kts | 248° |
| 2026-05-08 13:15 | 48.50430 | -4.63403 | 4009 ft | 228 kts | 248° |
| 2026-05-08 13:16 | 48.49917 | -4.65663 | 4010 ft | 228 kts | 248° |
| 2026-05-08 13:16 | 48.49398 | -4.67937 | 3993 ft | 222 kts | 246° |
| 2026-05-08 13:16 | 48.48606 | -4.69812 | 3832 ft | 212 kts | 219° |
| 2026-05-08 13:16 | 48.47368 | -4.70929 | 3519 ft | 203 kts | 194° |
| 2026-05-08 13:17 | 48.46006 | -4.71139 | 3085 ft | 200 kts | 176° |
| 2026-05-08 13:17 | 48.44651 | -4.71089 | 2999 ft | 191 kts | 175° |
| 2026-05-08 13:17 | 48.43337 | -4.71045 | 2996 ft | 187 kts | 176° |
| 2026-05-08 13:17 | 48.42037 | -4.70948 | 3011 ft | 186 kts | 167° |
| 2026-05-08 13:18 | 48.40929 | -4.70057 | 3008 ft | 182 kts | 134° |
| 2026-05-08 13:18 | 48.40349 | -4.68393 | 2954 ft | 183 kts | 103° |
| 2026-05-08 13:18 | 48.40160 | -4.66517 | 2812 ft | 180 kts | 99° |
| 2026-05-08 13:18 | 48.39975 | -4.64663 | 2658 ft | 178 kts | 99° |
| 2026-05-08 13:19 | 48.40029 | -4.62821 | 2507 ft | 174 kts | 78° |
| 2026-05-08 13:19 | 48.40405 | -4.61153 | 2396 ft | 164 kts | 73° |
| 2026-05-08 13:19 | 48.40769 | -4.59559 | 2262 ft | 160 kts | 74° |
| 2026-05-08 13:19 | 48.41128 | -4.57983 | 2143 ft | 159 kts | 73° |
| 2026-05-08 13:20 | 48.41487 | -4.56403 | 2022 ft | 158 kts | 73° |
| 2026-05-08 13:20 | 48.41842 | -4.54842 | 1836 ft | 157 kts | 73° |
| 2026-05-08 13:20 | 48.42197 | -4.53275 | 1615 ft | 158 kts | 72° |
| 2026-05-08 13:20 | 48.42549 | -4.51717 | 1394 ft | 156 kts | 73° |
| 2026-05-08 13:21 | 48.42897 | -4.50177 | 1192 ft | 156 kts | 72° |
| 2026-05-08 13:21 | 48.43236 | -4.48679 | 991 ft | 146 kts | 74° |
| 2026-05-08 13:21 | 48.43557 | -4.47267 | 793 ft | 140 kts | 74° |
| 2026-05-08 13:21 | 48.43871 | -4.45886 | 620 ft | 138 kts | 74° |
| 2026-05-08 13:22 | 48.44182 | -4.44537 | 424 ft | 137 kts | 73° |
| 2026-05-08 13:22 | 48.44481 | -4.43194 | 303 ft | 129 kts | 76° |
| 2026-05-08 13:22 | 48.44710 | -4.42179 | 327 ft | 63 kts | 71° |
| 2026-05-08 13:22 | 48.44776 | -4.41886 | 333 ft | 18 kts | 71° |
| 2026-05-08 13:23 | 48.44792 | -4.41675 | 333 ft | 23 kts | 130° |
| 2026-05-08 13:23 | 48.44747 | -4.41632 | 331 ft | 0 kts | 157° |
| 2026-05-08 13:23 | 48.44695 | -4.41619 | 328 ft | 13 kts | 181° |
| 2026-05-08 13:24 | 48.44645 | -4.41704 | 332 ft | 10 kts | 253° |
| 2026-05-08 13:24 | 48.44620 | -4.41817 | 331 ft | 12 kts | 252° |
| 2026-05-08 13:24 | 48.44594 | -4.41937 | 329 ft | 13 kts | 251° |
| 2026-05-08 13:24 | 48.44530 | -4.41997 | 329 ft | 11 kts | 215° |
| 2026-05-08 13:25 | 48.44480 | -4.42061 | 331 ft | 9 kts | 184° |
| 2026-05-08 13:25 | 48.44440 | -4.42043 | 329 ft | 5 kts | 159° |
| 2026-05-08 13:25 | 48.44426 | -4.42036 | 331 ft | 0 kts | 160° |